sensor_id;sensor_type;location;lat;lon;timestamp;P1;durP1;ratioP1;P2;durP2;ratioP2
11957;SDS011;6039;52.576;13.348;2023-08-30T00:01:29;3.63;;;2.40;;
11957;SDS011;6039;52.576;13.348;2023-08-30T00:06:34;3.97;;;2.20;;
11957;SDS011;6039;52.576;13.348;2023-08-30T00:11:40;3.67;;;2.57;;
11957;SDS011;6039;52.576;13.348;2023-08-30T00:16:44;3.53;;;2.80;;
11957;SDS011;6039;52.576;13.348;2023-08-30T00:21:48;6.63;;;2.80;;
11957;SDS011;6039;52.576;13.348;2023-08-30T00:26:55;3.23;;;2.37;;
11957;SDS011;6039;52.576;13.348;2023-08-30T00:31:59;4.13;;;2.30;;
11957;SDS011;6039;52.576;13.348;2023-08-30T00:37:03;3.40;;;2.10;;
11957;SDS011;6039;52.576;13.348;2023-08-30T00:42:11;2.57;;;2.30;;
11957;SDS011;6039;52.576;13.348;2023-08-30T00:47:15;3.83;;;2.50;;
11957;SDS011;6039;52.576;13.348;2023-08-30T00:52:19;5.20;;;2.50;;
11957;SDS011;6039;52.576;13.348;2023-08-30T00:57:25;2.80;;;2.30;;
11957;SDS011;6039;52.576;13.348;2023-08-30T01:02:30;5.40;;;2.67;;
11957;SDS011;6039;52.576;13.348;2023-08-30T01:07:34;3.83;;;2.67;;
11957;SDS011;6039;52.576;13.348;2023-08-30T01:12:42;2.80;;;2.50;;
11957;SDS011;6039;52.576;13.348;2023-08-30T01:17:48;3.07;;;2.43;;
11957;SDS011;6039;52.576;13.348;2023-08-30T01:22:55;3.63;;;2.60;;
11957;SDS011;6039;52.576;13.348;2023-08-30T01:28:04;2.93;;;2.53;;
11957;SDS011;6039;52.576;13.348;2023-08-30T01:33:10;4.43;;;2.63;;
11957;SDS011;6039;52.576;13.348;2023-08-30T01:38:14;3.37;;;2.50;;
11957;SDS011;6039;52.576;13.348;2023-08-30T01:43:22;4.97;;;2.60;;
11957;SDS011;6039;52.576;13.348;2023-08-30T01:48:26;3.50;;;2.50;;
11957;SDS011;6039;52.576;13.348;2023-08-30T01:53:31;4.03;;;2.60;;
11957;SDS011;6039;52.576;13.348;2023-08-30T01:58:41;3.30;;;2.50;;
11957;SDS011;6039;52.576;13.348;2023-08-30T02:03:45;3.67;;;2.20;;
11957;SDS011;6039;52.576;13.348;2023-08-30T02:08:49;5.50;;;2.50;;
11957;SDS011;6039;52.576;13.348;2023-08-30T02:13:58;3.20;;;2.20;;
11957;SDS011;6039;52.576;13.348;2023-08-30T02:19:03;2.97;;;2.20;;
11957;SDS011;6039;52.576;13.348;2023-08-30T02:24:07;4.73;;;2.40;;
11957;SDS011;6039;52.576;13.348;2023-08-30T02:29:14;2.47;;;2.20;;
11957;SDS011;6039;52.576;13.348;2023-08-30T02:34:18;5.00;;;2.43;;
11957;SDS011;6039;52.576;13.348;2023-08-30T02:39:22;3.20;;;2.10;;
11957;SDS011;6039;52.576;13.348;2023-08-30T02:44:28;2.37;;;2.10;;
11957;SDS011;6039;52.576;13.348;2023-08-30T02:49:32;3.90;;;3.13;;
11957;SDS011;6039;52.576;13.348;2023-08-30T02:54:37;3.20;;;2.60;;
11957;SDS011;6039;52.576;13.348;2023-08-30T02:59:43;4.13;;;2.83;;
11957;SDS011;6039;52.576;13.348;2023-08-30T03:04:47;3.57;;;2.83;;
11957;SDS011;6039;52.576;13.348;2023-08-30T03:09:51;7.40;;;3.30;;
11957;SDS011;6039;52.576;13.348;2023-08-30T03:14:58;3.77;;;2.60;;
11957;SDS011;6039;52.576;13.348;2023-08-30T03:20:02;5.90;;;2.73;;
11957;SDS011;6039;52.576;13.348;2023-08-30T03:25:07;3.60;;;2.90;;
11957;SDS011;6039;52.576;13.348;2023-08-30T03:30:15;3.50;;;3.00;;
11957;SDS011;6039;52.576;13.348;2023-08-30T03:35:19;3.63;;;3.00;;
11957;SDS011;6039;52.576;13.348;2023-08-30T03:40:23;3.60;;;3.10;;
11957;SDS011;6039;52.576;13.348;2023-08-30T03:45:30;8.20;;;3.37;;
11957;SDS011;6039;52.576;13.348;2023-08-30T03:50:38;3.83;;;3.07;;
11957;SDS011;6039;52.576;13.348;2023-08-30T03:55:42;3.80;;;3.40;;
11957;SDS011;6039;52.576;13.348;2023-08-30T04:00:48;4.57;;;3.30;;
11957;SDS011;6039;52.576;13.348;2023-08-30T04:05:54;4.83;;;3.13;;
11957;SDS011;6039;52.576;13.348;2023-08-30T04:10:59;4.70;;;3.10;;
11957;SDS011;6039;52.576;13.348;2023-08-30T04:16:06;3.80;;;3.13;;
11957;SDS011;6039;52.576;13.348;2023-08-30T04:21:10;5.20;;;3.03;;
11957;SDS011;6039;52.576;13.348;2023-08-30T04:26:14;6.40;;;3.20;;
11957;SDS011;6039;52.576;13.348;2023-08-30T04:31:21;3.97;;;3.40;;
11957;SDS011;6039;52.576;13.348;2023-08-30T04:36:25;3.63;;;3.20;;
11957;SDS011;6039;52.576;13.348;2023-08-30T04:41:29;5.43;;;3.40;;
11957;SDS011;6039;52.576;13.348;2023-08-30T04:46:36;5.23;;;3.37;;
11957;SDS011;6039;52.576;13.348;2023-08-30T04:51:40;4.43;;;3.57;;
11957;SDS011;6039;52.576;13.348;2023-08-30T04:56:44;8.27;;;3.87;;
11957;SDS011;6039;52.576;13.348;2023-08-30T05:01:50;4.20;;;3.80;;
11957;SDS011;6039;52.576;13.348;2023-08-30T05:06:54;5.87;;;4.27;;
11957;SDS011;6039;52.576;13.348;2023-08-30T05:11:58;5.37;;;4.03;;
11957;SDS011;6039;52.576;13.348;2023-08-30T05:17:05;4.67;;;4.00;;
11957;SDS011;6039;52.576;13.348;2023-08-30T05:22:09;5.73;;;3.83;;
11957;SDS011;6039;52.576;13.348;2023-08-30T05:27:13;7.47;;;4.20;;
11957;SDS011;6039;52.576;13.348;2023-08-30T05:32:20;4.80;;;3.80;;
11957;SDS011;6039;52.576;13.348;2023-08-30T05:37:24;4.33;;;3.70;;
11957;SDS011;6039;52.576;13.348;2023-08-30T05:42:28;4.03;;;3.57;;
11957;SDS011;6039;52.576;13.348;2023-08-30T05:47:35;4.90;;;3.70;;
11957;SDS011;6039;52.576;13.348;2023-08-30T05:52:39;7.27;;;3.90;;
11957;SDS011;6039;52.576;13.348;2023-08-30T05:57:44;7.30;;;3.93;;
11957;SDS011;6039;52.576;13.348;2023-08-30T06:02:51;5.70;;;4.10;;
11957;SDS011;6039;52.576;13.348;2023-08-30T06:07:55;6.87;;;4.10;;
11957;SDS011;6039;52.576;13.348;2023-08-30T06:12:59;4.50;;;3.57;;
11957;SDS011;6039;52.576;13.348;2023-08-30T06:18:06;4.07;;;3.50;;
11957;SDS011;6039;52.576;13.348;2023-08-30T06:23:11;6.90;;;4.03;;
11957;SDS011;6039;52.576;13.348;2023-08-30T06:28:16;6.27;;;3.50;;
11957;SDS011;6039;52.576;13.348;2023-08-30T06:33:22;5.80;;;3.63;;
11957;SDS011;6039;52.576;13.348;2023-08-30T06:38:26;8.20;;;3.50;;
11957;SDS011;6039;52.576;13.348;2023-08-30T06:43:30;6.83;;;3.77;;
11957;SDS011;6039;52.576;13.348;2023-08-30T06:48:36;6.33;;;3.37;;
11957;SDS011;6039;52.576;13.348;2023-08-30T06:53:40;4.27;;;2.90;;
11957;SDS011;6039;52.576;13.348;2023-08-30T06:58:46;4.97;;;3.43;;
11957;SDS011;6039;52.576;13.348;2023-08-30T07:03:52;3.90;;;2.80;;
11957;SDS011;6039;52.576;13.348;2023-08-30T07:08:56;4.87;;;3.23;;
11957;SDS011;6039;52.576;13.348;2023-08-30T07:14:01;7.27;;;2.97;;
11957;SDS011;6039;52.576;13.348;2023-08-30T07:19:08;5.30;;;2.33;;
11957;SDS011;6039;52.576;13.348;2023-08-30T07:24:12;3.10;;;2.53;;
11957;SDS011;6039;52.576;13.348;2023-08-30T07:29:16;2.97;;;2.40;;
11957;SDS011;6039;52.576;13.348;2023-08-30T07:34:23;5.07;;;2.73;;
11957;SDS011;6039;52.576;13.348;2023-08-30T07:39:27;2.57;;;2.23;;
11957;SDS011;6039;52.576;13.348;2023-08-30T07:44:31;5.30;;;2.53;;
11957;SDS011;6039;52.576;13.348;2023-08-30T07:49:37;6.23;;;2.30;;
11957;SDS011;6039;52.576;13.348;2023-08-30T07:54:41;2.93;;;2.60;;
11957;SDS011;6039;52.576;13.348;2023-08-30T07:59:45;4.40;;;2.37;;
11957;SDS011;6039;52.576;13.348;2023-08-30T08:04:51;5.60;;;2.97;;
11957;SDS011;6039;52.576;13.348;2023-08-30T08:09:56;2.40;;;2.20;;
11957;SDS011;6039;52.576;13.348;2023-08-30T08:15:00;3.13;;;2.20;;
11957;SDS011;6039;52.576;13.348;2023-08-30T08:20:07;4.67;;;2.07;;
11957;SDS011;6039;52.576;13.348;2023-08-30T08:25:12;2.30;;;1.97;;
11957;SDS011;6039;52.576;13.348;2023-08-30T08:30:17;5.73;;;2.27;;
11957;SDS011;6039;52.576;13.348;2023-08-30T08:35:23;3.77;;;2.43;;
11957;SDS011;6039;52.576;13.348;2023-08-30T08:40:27;3.17;;;2.50;;
11957;SDS011;6039;52.576;13.348;2023-08-30T08:45:32;3.30;;;2.50;;
11957;SDS011;6039;52.576;13.348;2023-08-30T08:50:41;3.67;;;1.90;;
11957;SDS011;6039;52.576;13.348;2023-08-30T08:55:46;3.33;;;1.87;;
11957;SDS011;6039;52.576;13.348;2023-08-30T09:00:51;2.30;;;1.83;;
11957;SDS011;6039;52.576;13.348;2023-08-30T09:05:57;2.10;;;1.90;;
11957;SDS011;6039;52.576;13.348;2023-08-30T09:11:01;3.80;;;2.60;;
11957;SDS011;6039;52.576;13.348;2023-08-30T09:16:11;4.23;;;2.33;;
11957;SDS011;6039;52.576;13.348;2023-08-30T09:21:18;2.63;;;2.30;;
11957;SDS011;6039;52.576;13.348;2023-08-30T09:26:22;2.63;;;2.07;;
11957;SDS011;6039;52.576;13.348;2023-08-30T09:31:26;1.90;;;1.60;;
11957;SDS011;6039;52.576;13.348;2023-08-30T09:36:40;2.33;;;1.80;;
11957;SDS011;6039;52.576;13.348;2023-08-30T09:41:47;1.83;;;1.73;;
11957;SDS011;6039;52.576;13.348;2023-08-30T09:46:52;2.60;;;1.80;;
11957;SDS011;6039;52.576;13.348;2023-08-30T09:51:59;2.20;;;2.00;;
11957;SDS011;6039;52.576;13.348;2023-08-30T09:57:08;2.53;;;2.20;;
11957;SDS011;6039;52.576;13.348;2023-08-30T10:02:13;2.60;;;1.73;;
11957;SDS011;6039;52.576;13.348;2023-08-30T10:07:20;4.37;;;1.80;;
11957;SDS011;6039;52.576;13.348;2023-08-30T10:12:24;1.53;;;1.27;;
11957;SDS011;6039;52.576;13.348;2023-08-30T10:17:32;1.90;;;1.50;;
11957;SDS011;6039;52.576;13.348;2023-08-30T10:22:39;1.60;;;1.40;;
11957;SDS011;6039;52.576;13.348;2023-08-30T10:27:45;4.90;;;1.73;;
11957;SDS011;6039;52.576;13.348;2023-08-30T10:32:50;3.15;;;1.42;;
11957;SDS011;6039;52.576;13.348;2023-08-30T10:37:58;1.93;;;1.40;;
11957;SDS011;6039;52.576;13.348;2023-08-30T10:43:03;2.07;;;1.60;;
11957;SDS011;6039;52.576;13.348;2023-08-30T10:48:07;1.87;;;1.40;;
11957;SDS011;6039;52.576;13.348;2023-08-30T10:53:15;1.50;;;1.40;;
11957;SDS011;6039;52.576;13.348;2023-08-30T10:58:19;1.97;;;1.70;;
11957;SDS011;6039;52.576;13.348;2023-08-30T11:03:23;2.33;;;1.50;;
11957;SDS011;6039;52.576;13.348;2023-08-30T11:08:30;2.20;;;1.63;;
11957;SDS011;6039;52.576;13.348;2023-08-30T11:13:38;1.60;;;1.33;;
11957;SDS011;6039;52.576;13.348;2023-08-30T11:18:41;3.43;;;1.50;;
11957;SDS011;6039;52.576;13.348;2023-08-30T11:23:48;2.60;;;1.47;;
11957;SDS011;6039;52.576;13.348;2023-08-30T11:28:52;2.67;;;1.50;;
11957;SDS011;6039;52.576;13.348;2023-08-30T11:33:56;3.00;;;1.70;;
11957;SDS011;6039;52.576;13.348;2023-08-30T11:39:04;2.80;;;1.80;;
11957;SDS011;6039;52.576;13.348;2023-08-30T11:44:11;2.37;;;1.70;;
11957;SDS011;6039;52.576;13.348;2023-08-30T11:49:16;3.83;;;1.70;;
11957;SDS011;6039;52.576;13.348;2023-08-30T11:54:23;1.63;;;1.37;;
11957;SDS011;6039;52.576;13.348;2023-08-30T11:59:27;2.60;;;1.60;;
11957;SDS011;6039;52.576;13.348;2023-08-30T12:04:32;1.83;;;1.40;;
11957;SDS011;6039;52.576;13.348;2023-08-30T12:09:42;3.00;;;1.73;;
11957;SDS011;6039;52.576;13.348;2023-08-30T12:14:54;2.57;;;1.70;;
11957;SDS011;6039;52.576;13.348;2023-08-30T12:19:58;3.93;;;1.40;;
11957;SDS011;6039;52.576;13.348;2023-08-30T12:25:14;2.00;;;1.47;;
11957;SDS011;6039;52.576;13.348;2023-08-30T12:30:19;2.93;;;1.70;;
11957;SDS011;6039;52.576;13.348;2023-08-30T12:35:23;1.70;;;1.60;;
11957;SDS011;6039;52.576;13.348;2023-08-30T12:40:29;2.37;;;1.80;;
11957;SDS011;6039;52.576;13.348;2023-08-30T12:45:33;3.47;;;1.80;;
11957;SDS011;6039;52.576;13.348;2023-08-30T12:50:38;2.67;;;1.87;;
11957;SDS011;6039;52.576;13.348;2023-08-30T12:55:44;2.30;;;1.77;;
11957;SDS011;6039;52.576;13.348;2023-08-30T13:00:48;2.20;;;2.00;;
11957;SDS011;6039;52.576;13.348;2023-08-30T13:05:52;3.67;;;2.23;;
11957;SDS011;6039;52.576;13.348;2023-08-30T13:11:01;2.20;;;1.90;;
11957;SDS011;6039;52.576;13.348;2023-08-30T13:16:05;2.33;;;1.73;;
11957;SDS011;6039;52.576;13.348;2023-08-30T13:21:09;3.60;;;1.83;;
11957;SDS011;6039;52.576;13.348;2023-08-30T13:26:16;2.50;;;1.57;;
11957;SDS011;6039;52.576;13.348;2023-08-30T13:31:20;3.57;;;1.83;;
11957;SDS011;6039;52.576;13.348;2023-08-30T13:36:24;1.90;;;1.60;;
11957;SDS011;6039;52.576;13.348;2023-08-30T13:41:30;3.23;;;2.20;;
11957;SDS011;6039;52.576;13.348;2023-08-30T13:46:35;2.97;;;1.80;;
11957;SDS011;6039;52.576;13.348;2023-08-30T13:51:39;2.40;;;1.50;;
11957;SDS011;6039;52.576;13.348;2023-08-30T13:56:46;4.20;;;1.70;;
11957;SDS011;6039;52.576;13.348;2023-08-30T14:01:50;2.70;;;1.67;;
11957;SDS011;6039;52.576;13.348;2023-08-30T14:06:54;2.60;;;1.77;;
11957;SDS011;6039;52.576;13.348;2023-08-30T14:12:01;2.13;;;1.53;;
11957;SDS011;6039;52.576;13.348;2023-08-30T14:17:06;2.50;;;1.67;;
11957;SDS011;6039;52.576;13.348;2023-08-30T14:22:10;2.07;;;1.43;;
11957;SDS011;6039;52.576;13.348;2023-08-30T14:27:16;3.33;;;1.67;;
11957;SDS011;6039;52.576;13.348;2023-08-30T14:32:20;3.00;;;1.63;;
11957;SDS011;6039;52.576;13.348;2023-08-30T14:37:24;1.73;;;1.40;;
11957;SDS011;6039;52.576;13.348;2023-08-30T14:42:31;1.77;;;1.40;;
11957;SDS011;6039;52.576;13.348;2023-08-30T14:47:35;3.00;;;1.50;;
11957;SDS011;6039;52.576;13.348;2023-08-30T14:52:40;1.70;;;1.50;;
11957;SDS011;6039;52.576;13.348;2023-08-30T14:57:46;2.47;;;1.23;;
11957;SDS011;6039;52.576;13.348;2023-08-30T15:02:50;2.03;;;1.53;;
11957;SDS011;6039;52.576;13.348;2023-08-30T15:07:54;2.57;;;1.53;;
11957;SDS011;6039;52.576;13.348;2023-08-30T15:13:01;3.50;;;2.40;;
11957;SDS011;6039;52.576;13.348;2023-08-30T15:18:05;1.57;;;1.30;;
11957;SDS011;6039;52.576;13.348;2023-08-30T15:28:20;2.13;;;1.30;;
11957;SDS011;6039;52.576;13.348;2023-08-30T15:33:25;1.87;;;1.20;;
11957;SDS011;6039;52.576;13.348;2023-08-30T15:38:29;1.50;;;1.20;;
11957;SDS011;6039;52.576;13.348;2023-08-30T15:43:36;3.90;;;2.10;;
11957;SDS011;6039;52.576;13.348;2023-08-30T15:48:43;4.23;;;3.13;;
11957;SDS011;6039;52.576;13.348;2023-08-30T15:53:48;3.30;;;1.80;;
11957;SDS011;6039;52.576;13.348;2023-08-30T15:58:54;8.50;;;6.40;;
11957;SDS011;6039;52.576;13.348;2023-08-30T16:03:59;2.03;;;1.60;;
11957;SDS011;6039;52.576;13.348;2023-08-30T16:09:03;2.70;;;1.53;;
11957;SDS011;6039;52.576;13.348;2023-08-30T16:14:09;1.90;;;1.60;;
11957;SDS011;6039;52.576;13.348;2023-08-30T16:19:13;1.73;;;1.50;;
11957;SDS011;6039;52.576;13.348;2023-08-30T16:24:19;3.47;;;1.60;;
11957;SDS011;6039;52.576;13.348;2023-08-30T16:29:25;2.20;;;1.57;;
11957;SDS011;6039;52.576;13.348;2023-08-30T16:34:30;2.70;;;2.13;;
11957;SDS011;6039;52.576;13.348;2023-08-30T16:39:34;2.27;;;1.80;;
11957;SDS011;6039;52.576;13.348;2023-08-30T16:44:40;3.17;;;1.87;;
11957;SDS011;6039;52.576;13.348;2023-08-30T16:49:44;3.10;;;2.73;;
11957;SDS011;6039;52.576;13.348;2023-08-30T16:54:48;2.30;;;1.87;;
11957;SDS011;6039;52.576;13.348;2023-08-30T16:59:55;2.43;;;2.10;;
11957;SDS011;6039;52.576;13.348;2023-08-30T17:04:59;2.10;;;1.77;;
11957;SDS011;6039;52.576;13.348;2023-08-30T17:10:03;3.23;;;2.60;;
11957;SDS011;6039;52.576;13.348;2023-08-30T17:15:11;4.13;;;2.97;;
11957;SDS011;6039;52.576;13.348;2023-08-30T17:20:15;3.13;;;2.40;;
11957;SDS011;6039;52.576;13.348;2023-08-30T17:25:19;3.70;;;2.10;;
11957;SDS011;6039;52.576;13.348;2023-08-30T17:30:26;2.20;;;1.83;;
11957;SDS011;6039;52.576;13.348;2023-08-30T17:35:31;2.57;;;2.10;;
11957;SDS011;6039;52.576;13.348;2023-08-30T17:40:36;2.70;;;2.23;;
11957;SDS011;6039;52.576;13.348;2023-08-30T17:45:43;4.00;;;2.60;;
11957;SDS011;6039;52.576;13.348;2023-08-30T17:50:47;4.60;;;2.60;;
11957;SDS011;6039;52.576;13.348;2023-08-30T17:55:54;2.90;;;2.47;;
11957;SDS011;6039;52.576;13.348;2023-08-30T18:01:01;3.30;;;2.47;;
11957;SDS011;6039;52.576;13.348;2023-08-30T18:06:08;2.50;;;2.20;;
11957;SDS011;6039;52.576;13.348;2023-08-30T18:11:15;3.67;;;2.90;;
11957;SDS011;6039;52.576;13.348;2023-08-30T18:16:23;2.80;;;2.30;;
11957;SDS011;6039;52.576;13.348;2023-08-30T18:21:27;4.60;;;2.80;;
11957;SDS011;6039;52.576;13.348;2023-08-30T18:26:34;4.77;;;2.97;;
11957;SDS011;6039;52.576;13.348;2023-08-30T18:31:41;4.70;;;3.30;;
11957;SDS011;6039;52.576;13.348;2023-08-30T18:36:45;5.00;;;2.93;;
11957;SDS011;6039;52.576;13.348;2023-08-30T18:41:49;3.80;;;2.67;;
11957;SDS011;6039;52.576;13.348;2023-08-30T18:46:55;3.97;;;2.70;;
11957;SDS011;6039;52.576;13.348;2023-08-30T18:51:59;3.50;;;2.80;;
11957;SDS011;6039;52.576;13.348;2023-08-30T18:57:04;4.27;;;2.90;;
11957;SDS011;6039;52.576;13.348;2023-08-30T19:02:12;4.70;;;3.40;;
11957;SDS011;6039;52.576;13.348;2023-08-30T19:07:16;4.80;;;3.37;;
11957;SDS011;6039;52.576;13.348;2023-08-30T19:12:20;3.63;;;3.00;;
11957;SDS011;6039;52.576;13.348;2023-08-30T19:17:26;5.67;;;3.20;;
11957;SDS011;6039;52.576;13.348;2023-08-30T19:22:30;3.73;;;2.87;;
11957;SDS011;6039;52.576;13.348;2023-08-30T19:27:34;3.80;;;3.07;;
11957;SDS011;6039;52.576;13.348;2023-08-30T19:32:41;4.80;;;3.07;;
11957;SDS011;6039;52.576;13.348;2023-08-30T19:37:45;5.30;;;3.33;;
11957;SDS011;6039;52.576;13.348;2023-08-30T19:42:49;3.73;;;2.97;;
11957;SDS011;6039;52.576;13.348;2023-08-30T19:47:56;3.80;;;2.77;;
11957;SDS011;6039;52.576;13.348;2023-08-30T19:53:00;15.90;;;4.93;;
11957;SDS011;6039;52.576;13.348;2023-08-30T19:58:04;4.80;;;3.13;;
11957;SDS011;6039;52.576;13.348;2023-08-30T20:03:11;4.67;;;3.23;;
11957;SDS011;6039;52.576;13.348;2023-08-30T20:08:15;5.03;;;3.33;;
11957;SDS011;6039;52.576;13.348;2023-08-30T20:13:19;8.13;;;3.70;;
11957;SDS011;6039;52.576;13.348;2023-08-30T20:18:26;7.10;;;4.57;;
11957;SDS011;6039;52.576;13.348;2023-08-30T20:23:30;5.57;;;4.27;;
11957;SDS011;6039;52.576;13.348;2023-08-30T20:28:34;5.63;;;4.77;;
11957;SDS011;6039;52.576;13.348;2023-08-30T20:33:41;8.13;;;4.00;;
11957;SDS011;6039;52.576;13.348;2023-08-30T20:38:45;6.00;;;4.47;;
11957;SDS011;6039;52.576;13.348;2023-08-30T20:43:49;5.17;;;3.23;;
11957;SDS011;6039;52.576;13.348;2023-08-30T20:48:56;4.20;;;3.20;;
11957;SDS011;6039;52.576;13.348;2023-08-30T20:54:00;4.43;;;2.63;;
11957;SDS011;6039;52.576;13.348;2023-08-30T20:59:05;2.53;;;2.20;;
11957;SDS011;6039;52.576;13.348;2023-08-30T21:04:11;4.33;;;2.63;;
11957;SDS011;6039;52.576;13.348;2023-08-30T21:09:16;2.47;;;2.20;;
11957;SDS011;6039;52.576;13.348;2023-08-30T21:14:20;4.37;;;2.37;;
11957;SDS011;6039;52.576;13.348;2023-08-30T21:19:27;2.80;;;2.30;;
11957;SDS011;6039;52.576;13.348;2023-08-30T21:24:31;5.07;;;2.70;;
11957;SDS011;6039;52.576;13.348;2023-08-30T21:29:35;3.40;;;2.80;;
11957;SDS011;6039;52.576;13.348;2023-08-30T21:34:42;3.90;;;3.10;;
11957;SDS011;6039;52.576;13.348;2023-08-30T21:39:46;2.93;;;2.63;;
11957;SDS011;6039;52.576;13.348;2023-08-30T21:44:50;3.23;;;2.40;;
11957;SDS011;6039;52.576;13.348;2023-08-30T21:49:58;3.70;;;3.07;;
11957;SDS011;6039;52.576;13.348;2023-08-30T21:55:03;4.23;;;3.20;;
11957;SDS011;6039;52.576;13.348;2023-08-30T22:00:11;3.77;;;2.87;;
11957;SDS011;6039;52.576;13.348;2023-08-30T22:05:18;5.93;;;3.03;;
11957;SDS011;6039;52.576;13.348;2023-08-30T22:10:24;4.20;;;3.20;;
11957;SDS011;6039;52.576;13.348;2023-08-30T22:15:28;5.53;;;3.40;;
11957;SDS011;6039;52.576;13.348;2023-08-30T22:20:34;3.80;;;3.37;;
11957;SDS011;6039;52.576;13.348;2023-08-30T22:25:38;3.63;;;3.13;;
11957;SDS011;6039;52.576;13.348;2023-08-30T22:30:42;4.10;;;3.00;;
11957;SDS011;6039;52.576;13.348;2023-08-30T22:35:49;4.80;;;3.33;;
11957;SDS011;6039;52.576;13.348;2023-08-30T22:40:53;4.47;;;3.37;;
11957;SDS011;6039;52.576;13.348;2023-08-30T22:45:58;4.13;;;3.20;;
11957;SDS011;6039;52.576;13.348;2023-08-30T22:51:06;4.00;;;3.30;;
11957;SDS011;6039;52.576;13.348;2023-08-30T22:56:12;4.67;;;3.60;;
11957;SDS011;6039;52.576;13.348;2023-08-30T23:01:17;5.07;;;3.40;;
11957;SDS011;6039;52.576;13.348;2023-08-30T23:06:24;4.30;;;3.90;;
11957;SDS011;6039;52.576;13.348;2023-08-30T23:11:28;4.13;;;2.93;;
11957;SDS011;6039;52.576;13.348;2023-08-30T23:16:32;4.03;;;3.27;;
11957;SDS011;6039;52.576;13.348;2023-08-30T23:21:38;4.23;;;3.20;;
11957;SDS011;6039;52.576;13.348;2023-08-30T23:26:42;4.17;;;2.97;;
11957;SDS011;6039;52.576;13.348;2023-08-30T23:31:46;3.67;;;3.20;;
11957;SDS011;6039;52.576;13.348;2023-08-30T23:36:53;3.60;;;3.00;;
11957;SDS011;6039;52.576;13.348;2023-08-30T23:41:57;5.83;;;3.30;;
11957;SDS011;6039;52.576;13.348;2023-08-30T23:47:01;3.73;;;3.30;;
11957;SDS011;6039;52.576;13.348;2023-08-30T23:52:07;3.57;;;3.10;;
11957;SDS011;6039;52.576;13.348;2023-08-30T23:57:11;3.40;;;3.10;;
